createdAt,value
2022-10-17T00:00:37.916Z,14.31
2022-10-17T00:03:04.456Z,14.43
2022-10-17T00:05:31.192Z,14.31
2022-10-17T00:07:57.739Z,14.38
2022-10-17T00:10:25.290Z,14.46
2022-10-17T00:12:52.644Z,14.45
2022-10-17T00:15:20.685Z,14.47
2022-10-17T00:17:47.365Z,14.43
2022-10-17T00:20:14.084Z,14.35
2022-10-17T00:22:40.759Z,14.34
2022-10-17T00:25:07.485Z,14.45
2022-10-17T00:27:40.858Z,14.43
2022-10-17T00:30:08.629Z,14.50
2022-10-17T00:32:35.193Z,14.45
2022-10-17T00:35:01.813Z,14.26
2022-10-17T00:37:30.194Z,14.12
2022-10-17T00:39:56.741Z,14.14
2022-10-17T00:42:25.298Z,14.17
2022-10-17T00:45:07.537Z,14.11
2022-10-17T00:47:35.975Z,14.13
2022-10-17T00:52:34.820Z,14.07
2022-10-17T00:55:09.675Z,14.12
2022-10-17T00:57:36.330Z,13.90
2022-10-17T01:00:05.140Z,14.06
2022-10-17T01:02:31.762Z,14.03
2022-10-17T01:04:59.665Z,13.93
2022-10-17T01:07:30.823Z,13.89
2022-10-17T01:09:59.964Z,13.71
2022-10-17T01:12:36.789Z,13.69
2022-10-17T01:15:18.032Z,13.75
2022-10-17T01:17:59.774Z,13.71
2022-10-17T01:20:41.688Z,13.77
2022-10-17T01:23:11.084Z,13.61
2022-10-17T01:25:46.932Z,13.59
2022-10-17T01:28:32.901Z,13.68
2022-10-17T01:31:02.557Z,13.78
2022-10-17T01:33:29.101Z,13.76
2022-10-17T01:36:04.849Z,13.77
2022-10-17T01:38:38.362Z,13.56
2022-10-17T01:41:14.732Z,13.53
2022-10-17T01:43:47.292Z,13.49
2022-10-17T01:46:19.562Z,13.05
2022-10-17T01:48:46.806Z,13.14
2022-10-17T01:51:17.170Z,13.15
2022-10-17T01:53:47.596Z,12.95
2022-10-17T01:56:14.701Z,13.08
2022-10-17T01:58:47.600Z,12.90
2022-10-17T02:01:14.332Z,13.30
2022-10-17T02:03:43.177Z,13.30
2022-10-17T02:06:09.896Z,13.34
2022-10-17T02:08:42.421Z,13.47
2022-10-17T02:11:14.908Z,13.45
2022-10-17T02:13:51.591Z,13.24
2022-10-17T02:16:18.170Z,13.15
2022-10-17T02:18:57.446Z,13.30
2022-10-17T02:21:43.424Z,13.37
2022-10-17T02:27:35.785Z,13.43
2022-10-17T02:33:08.147Z,13.25
2022-10-17T02:38:29.653Z,13.35
2022-10-17T02:41:33.461Z,13.16
2022-10-17T02:44:08.541Z,12.98
2022-10-17T02:49:33.262Z,13.16
2022-10-17T02:52:20.794Z,13.07
2022-10-17T02:55:00.120Z,12.85
2022-10-17T02:58:18.542Z,12.65
2022-10-17T03:00:48.092Z,12.61
2022-10-17T03:03:29.667Z,12.94
2022-10-17T03:06:09.512Z,12.98
2022-10-17T03:08:53.889Z,12.87
2022-10-17T03:11:20.760Z,12.79
2022-10-17T03:13:47.348Z,12.75
2022-10-17T03:16:13.869Z,12.95
2022-10-17T03:18:40.482Z,12.99
2022-10-17T03:21:07.227Z,12.83
2022-10-17T03:23:33.857Z,12.75
2022-10-17T03:26:03.455Z,12.70
2022-10-17T03:28:30.058Z,12.90
2022-10-17T03:30:56.667Z,12.91
2022-10-17T03:33:23.200Z,12.75
2022-10-17T03:41:03.990Z,12.67
2022-10-17T03:43:39.410Z,12.67
2022-10-17T03:46:21.555Z,12.53
2022-10-17T03:48:49.208Z,12.56
2022-10-17T03:51:31.227Z,12.52
2022-10-17T03:54:02.203Z,12.42
2022-10-17T03:56:31.293Z,12.43
2022-10-17T03:58:59.590Z,12.54
2022-10-17T04:01:26.304Z,12.43
2022-10-17T04:03:54.028Z,12.30
2022-10-17T04:06:21.259Z,12.29
2022-10-17T04:08:48.005Z,12.25
2022-10-17T04:11:16.113Z,12.53
2022-10-17T04:13:43.225Z,12.55
2022-10-17T04:16:13.915Z,12.59
2022-10-17T04:18:40.451Z,12.28
2022-10-17T04:21:07.663Z,12.41
2022-10-17T04:23:34.650Z,12.47
2022-10-17T04:26:01.853Z,12.46
2022-10-17T04:28:28.520Z,12.48
2022-10-17T04:30:59.135Z,12.41
2022-10-17T04:33:26.023Z,12.39
2022-10-17T04:36:05.843Z,12.43
2022-10-17T04:38:32.677Z,12.43
2022-10-17T04:41:03.361Z,12.45
2022-10-17T04:43:30.414Z,12.54
2022-10-17T04:46:01.425Z,12.28
2022-10-17T04:48:29.034Z,12.07
2022-10-17T04:51:00.042Z,12.23
2022-10-17T04:53:27.319Z,12.35
2022-10-17T04:55:54.122Z,12.44
2022-10-17T04:58:21.099Z,12.38
2022-10-17T05:00:47.788Z,12.34
2022-10-17T05:03:14.602Z,12.28
2022-10-17T05:05:41.946Z,12.25
2022-10-17T05:08:09.345Z,12.22
2022-10-17T05:10:40.477Z,12.34
2022-10-17T05:13:07.516Z,12.24
2022-10-17T05:15:34.245Z,12.16
2022-10-17T05:18:01.185Z,12.22
2022-10-17T05:20:27.911Z,12.25
2022-10-17T05:25:22.079Z,12.13
2022-10-17T05:27:48.755Z,12.36
2022-10-17T05:30:15.358Z,12.24
2022-10-17T05:32:50.890Z,12.29
2022-10-17T05:35:17.604Z,12.35
2022-10-17T05:37:44.187Z,12.40
2022-10-17T05:40:19.209Z,12.52
2022-10-17T05:42:47.534Z,12.54
2022-10-17T05:45:54.294Z,13.15
2022-10-17T05:48:25.553Z,13.60
2022-10-17T05:51:19.169Z,14.14
2022-10-17T05:53:49.283Z,14.57
2022-10-17T05:56:17.506Z,14.98
2022-10-17T05:59:00.712Z,15.51
2022-10-17T06:01:30.370Z,16.22
2022-10-17T06:04:03.369Z,16.52
2022-10-17T06:06:48.832Z,16.87
2022-10-17T06:09:42.437Z,17.74
2022-10-17T06:12:10.207Z,17.88
2022-10-17T06:14:37.109Z,18.13
2022-10-17T06:17:06.743Z,18.83
2022-10-17T06:19:38.531Z,19.37
2022-10-17T06:22:07.302Z,19.51
2022-10-17T06:24:34.129Z,20.06
2022-10-17T06:27:05.851Z,20.36
2022-10-17T06:29:36.199Z,20.61
2022-10-17T06:32:06.914Z,20.83
2022-10-17T06:34:35.906Z,20.74
2022-10-17T06:37:07.316Z,21.17
2022-10-17T06:39:47.140Z,21.80
2022-10-17T06:42:16.254Z,22.09
2022-10-17T06:44:43.387Z,22.23
2022-10-17T06:47:16.544Z,22.42
2022-10-17T06:49:46.108Z,22.59
2022-10-17T06:52:16.470Z,22.41
2022-10-17T06:55:06.410Z,22.42
2022-10-17T06:57:36.357Z,22.52
2022-10-17T07:00:06.832Z,22.67
2022-10-17T07:02:48.758Z,21.92
2022-10-17T07:05:29.817Z,22.25
2022-10-17T07:14:32.393Z,22.29
2022-10-17T07:23:30.303Z,22.19
2022-10-17T07:26:03.861Z,22.53
2022-10-17T07:28:36.798Z,22.09
2022-10-17T07:31:25.830Z,21.83
2022-10-17T07:34:15.026Z,21.91
2022-10-17T07:37:04.137Z,21.88
2022-10-17T07:39:30.945Z,21.91
2022-10-17T07:42:48.232Z,21.81
2022-10-17T07:54:35.687Z,22.12
2022-10-17T07:57:15.438Z,22.27
2022-10-17T08:00:11.757Z,21.77
2022-10-17T08:02:40.484Z,20.67
2022-10-17T08:09:24.544Z,20.34
2022-10-17T08:11:45.354Z,20.97
2022-10-17T08:14:31.361Z,20.93
2022-10-17T08:17:06.499Z,21.11
2022-10-17T08:22:45.661Z,21.10
2022-10-17T08:25:42.144Z,21.79
2022-10-17T08:28:47.031Z,21.70
2022-10-17T08:34:49.118Z,21.86
2022-10-17T08:37:43.592Z,20.90
2022-10-17T08:51:06.318Z,23.05
2022-10-17T08:53:55.783Z,23.55
2022-10-17T08:56:49.463Z,24.13
2022-10-17T09:00:29.236Z,23.01
2022-10-17T09:23:43.681Z,25.49
2022-10-17T09:26:33.826Z,24.75
2022-10-17T09:29:22.692Z,24.52
2022-10-17T09:32:24.178Z,24.90
2022-10-17T09:37:43.461Z,25.18
2022-10-17T09:40:43.735Z,25.09
2022-10-17T09:43:28.394Z,25.43
2022-10-17T09:51:33.515Z,25.83
2022-10-17T09:59:59.091Z,26.21
2022-10-17T10:03:36.537Z,27.26
2022-10-17T10:06:23.572Z,27.04
2022-10-17T10:09:00.334Z,26.70
2022-10-17T10:11:47.934Z,26.64
2022-10-17T10:14:42.719Z,26.47
2022-10-17T10:17:29.787Z,27.18
2022-10-17T10:20:21.840Z,27.88
2022-10-17T10:23:07.227Z,28.42
2022-10-17T10:25:35.349Z,29.19
2022-10-17T10:28:02.792Z,29.51
2022-10-17T10:30:32.074Z,29.41
2022-10-17T10:33:01.958Z,29.72
2022-10-17T10:35:33.581Z,30.15
2022-10-17T10:38:01.598Z,30.51
2022-10-17T10:40:35.601Z,30.92
2022-10-17T10:43:05.402Z,30.97
2022-10-17T10:45:54.120Z,30.39
2022-10-17T10:48:30.667Z,29.84
2022-10-17T10:51:14.357Z,27.64
2022-10-17T10:53:56.010Z,28.08
2022-10-17T10:56:30.445Z,26.90
2022-10-17T10:59:11.720Z,25.43
2022-10-17T11:01:48.394Z,26.15
2022-10-17T11:04:15.145Z,26.41
2022-10-17T11:06:44.661Z,25.69
2022-10-17T11:09:30.039Z,25.67
2022-10-17T11:12:08.891Z,26.01
2022-10-17T11:14:42.691Z,25.79
2022-10-17T11:17:30.426Z,25.09
2022-10-17T11:20:12.877Z,24.79
2022-10-17T11:22:49.780Z,25.49
2022-10-17T11:25:36.722Z,24.86
2022-10-17T11:28:18.554Z,24.75
2022-10-17T11:30:57.616Z,25.47
2022-10-17T11:33:28.534Z,26.40
2022-10-17T11:35:59.830Z,27.05
2022-10-17T11:38:36.528Z,26.12
2022-10-17T11:41:05.271Z,25.86
2022-10-17T11:43:37.415Z,25.13
2022-10-17T11:46:24.489Z,25.15
2022-10-17T11:48:57.285Z,25.13
2022-10-17T11:54:16.065Z,25.09
2022-10-17T11:56:43.089Z,25.46
2022-10-17T11:59:30.241Z,25.18
2022-10-17T12:02:02.674Z,25.21
2022-10-17T12:04:30.412Z,25.01
2022-10-17T12:07:05.093Z,23.95
2022-10-17T12:09:45.633Z,24.55
2022-10-17T12:12:23.621Z,24.45
2022-10-17T12:14:51.368Z,24.60
2022-10-17T12:17:44.673Z,24.55
2022-10-17T12:20:21.694Z,24.41
2022-10-17T12:23:14.596Z,24.62
2022-10-17T12:25:52.896Z,25.00
2022-10-17T12:28:29.567Z,25.77
2022-10-17T12:31:03.559Z,26.34
2022-10-17T12:33:38.351Z,26.11
2022-10-17T12:36:17.746Z,25.95
2022-10-17T12:38:50.239Z,26.22
2022-10-17T12:41:37.604Z,26.59
2022-10-17T12:44:17.851Z,26.44
2022-10-17T12:46:49.962Z,27.19
2022-10-17T12:49:24.417Z,26.50
2022-10-17T12:52:08.388Z,26.20
2022-10-17T12:55:14.787Z,26.91
2022-10-17T12:58:50.681Z,27.39
2022-10-17T13:01:22.535Z,27.83
2022-10-17T13:04:00.625Z,28.14
2022-10-17T13:06:40.129Z,28.05
2022-10-17T13:09:19.090Z,27.70
2022-10-17T13:11:46.096Z,28.34
2022-10-17T13:14:14.718Z,28.04
2022-10-17T13:16:51.481Z,28.16
2022-10-17T13:19:19.520Z,28.53
2022-10-17T13:22:06.392Z,28.02
2022-10-17T13:24:36.414Z,28.00
2022-10-17T13:27:03.896Z,27.59
2022-10-17T13:30:10.957Z,27.23
2022-10-17T13:36:00.794Z,27.77
2022-10-17T13:38:56.564Z,27.38
2022-10-17T13:41:53.303Z,26.73
2022-10-17T13:44:24.325Z,26.89
2022-10-17T13:46:59.641Z,25.95
2022-10-17T13:49:56.746Z,25.96
2022-10-17T13:52:26.742Z,25.75
2022-10-17T13:55:17.607Z,26.09
2022-10-17T13:57:56.596Z,26.65
2022-10-17T14:00:36.597Z,26.70
2022-10-17T14:03:04.644Z,26.80
2022-10-17T14:06:15.455Z,26.83
2022-10-17T14:08:54.473Z,26.94
2022-10-17T14:11:45.654Z,25.97
2022-10-17T14:14:20.767Z,26.60
2022-10-17T14:16:47.599Z,25.93
2022-10-17T14:19:25.277Z,26.80
2022-10-17T14:21:57.170Z,26.88
2022-10-17T14:24:23.958Z,27.14
2022-10-17T14:26:52.001Z,26.94
2022-10-17T14:29:18.811Z,27.44
2022-10-17T14:31:45.653Z,27.42
2022-10-17T14:34:21.976Z,27.00
2022-10-17T14:36:51.936Z,27.23
2022-10-17T14:39:22.613Z,27.68
2022-10-17T14:41:49.945Z,27.74
2022-10-17T14:44:20.997Z,27.77
2022-10-17T14:46:51.024Z,27.37
2022-10-17T14:49:24.545Z,27.55
2022-10-17T14:52:14.925Z,27.50
2022-10-17T14:54:46.685Z,27.40
2022-10-17T14:57:16.402Z,26.80
2022-10-17T14:59:53.880Z,26.78
2022-10-17T15:02:22.190Z,26.70
2022-10-17T15:04:48.933Z,26.85
2022-10-17T15:07:16.291Z,26.96
2022-10-17T15:09:43.891Z,26.72
2022-10-17T15:12:15.277Z,26.83
2022-10-17T15:14:43.584Z,26.76
2022-10-17T15:17:14.688Z,26.72
2022-10-17T15:19:41.682Z,26.70
2022-10-17T15:22:08.444Z,26.61
2022-10-17T15:24:35.054Z,26.34
2022-10-17T15:27:02.317Z,26.21
2022-10-17T15:29:30.192Z,26.21
2022-10-17T15:31:56.943Z,26.10
2022-10-17T15:34:23.646Z,26.12
2022-10-17T15:36:51.401Z,26.06
2022-10-17T15:39:18.190Z,25.88
2022-10-17T15:41:45.115Z,25.77
2022-10-17T15:44:11.816Z,25.49
2022-10-17T15:46:40.016Z,25.24
2022-10-17T15:49:08.124Z,25.21
2022-10-17T15:51:34.850Z,25.04
2022-10-17T15:54:01.985Z,24.92
2022-10-17T15:56:36.452Z,24.81
2022-10-17T15:59:04.941Z,24.68
2022-10-17T16:01:33.247Z,24.53
2022-10-17T16:04:00.498Z,24.48
2022-10-17T16:06:27.766Z,24.45
2022-10-17T16:08:55.222Z,24.38
2022-10-17T16:11:25.275Z,24.25
2022-10-17T16:13:53.676Z,24.10
2022-10-17T16:16:22.911Z,23.89
2022-10-17T16:18:52.973Z,23.78
2022-10-17T16:21:20.846Z,23.72
2022-10-17T16:23:48.334Z,23.57
2022-10-17T16:26:16.272Z,23.28
2022-10-17T16:28:45.987Z,22.55
2022-10-17T16:31:19.235Z,22.80
2022-10-17T16:33:46.141Z,22.05
2022-10-17T16:36:12.903Z,21.46
2022-10-17T16:38:39.555Z,21.72
2022-10-17T16:41:13.920Z,21.84
2022-10-17T16:43:40.641Z,20.95
2022-10-17T16:46:07.325Z,19.77
2022-10-17T16:48:34.066Z,20.04
2022-10-17T16:51:02.648Z,20.10
2022-10-17T16:53:29.356Z,20.46
2022-10-17T16:55:59.735Z,20.52
2022-10-17T16:58:30.958Z,20.69
2022-10-17T17:01:02.072Z,20.57
2022-10-17T17:03:28.803Z,20.79
2022-10-17T17:05:55.478Z,20.69
2022-10-17T17:08:22.284Z,20.18
2022-10-17T17:10:52.736Z,19.56
2022-10-17T17:13:19.773Z,19.12
2022-10-17T17:15:46.636Z,19.09
2022-10-17T17:18:14.532Z,19.54
2022-10-17T17:20:41.897Z,18.82
2022-10-17T17:23:13.668Z,19.17
2022-10-17T17:25:42.447Z,18.88
2022-10-17T17:28:09.515Z,18.47
2022-10-17T17:30:36.202Z,18.50
2022-10-17T17:33:03.119Z,18.64
2022-10-17T17:35:30.748Z,18.36
2022-10-17T17:37:57.759Z,18.02
2022-10-17T17:40:25.090Z,18.12
2022-10-17T17:42:52.052Z,18.45
2022-10-17T17:45:18.898Z,18.30
2022-10-17T17:47:45.671Z,18.13
2022-10-17T17:50:12.381Z,17.80
2022-10-17T17:52:42.166Z,17.68
2022-10-17T17:55:09.230Z,17.76
2022-10-17T17:57:36.000Z,17.80
2022-10-17T18:00:02.770Z,18.33
2022-10-17T18:02:29.683Z,17.93
2022-10-17T18:04:56.618Z,17.56
2022-10-17T18:07:24.132Z,17.06
2022-10-17T18:09:51.851Z,17.19
2022-10-17T18:12:19.684Z,17.07
2022-10-17T18:14:46.412Z,16.86
2022-10-17T18:17:14.196Z,16.91
2022-10-17T18:19:41.250Z,16.83
2022-10-17T18:22:07.990Z,17.45
2022-10-17T18:24:34.874Z,17.71
2022-10-17T18:27:01.785Z,17.96
2022-10-17T18:29:29.730Z,18.02
2022-10-17T18:31:56.451Z,18.12
2022-10-17T18:34:23.186Z,18.12
2022-10-17T18:36:50.097Z,18.32
2022-10-17T18:39:16.876Z,18.28
2022-10-17T18:41:43.615Z,18.24
2022-10-17T18:44:12.562Z,18.28
2022-10-17T18:46:43.231Z,18.51
2022-10-17T18:49:11.048Z,18.51
2022-10-17T18:51:37.678Z,18.46
2022-10-17T18:54:04.582Z,18.39
2022-10-17T18:56:31.911Z,18.31
2022-10-17T18:58:58.592Z,18.47
2022-10-17T19:01:26.749Z,18.43
2022-10-17T19:03:54.752Z,18.19
2022-10-17T19:06:23.036Z,18.19
2022-10-17T19:08:49.899Z,18.11
2022-10-17T19:11:24.451Z,18.16
2022-10-17T19:13:51.783Z,18.00
2022-10-17T19:16:20.515Z,18.10
2022-10-17T19:18:51.022Z,18.06
2022-10-17T19:21:21.747Z,18.19
2022-10-17T19:23:59.119Z,18.13
2022-10-17T19:26:26.512Z,18.00
2022-10-17T19:28:54.021Z,17.96
2022-10-17T19:31:26.419Z,17.76
2022-10-17T19:33:53.725Z,17.85
2022-10-17T19:36:21.649Z,17.84
2022-10-17T19:38:48.527Z,17.74
2022-10-17T19:41:16.345Z,17.62
2022-10-17T19:43:45.250Z,17.57
2022-10-17T19:46:16.396Z,17.60
2022-10-17T19:48:43.430Z,17.57
2022-10-17T19:51:13.991Z,17.31
2022-10-17T19:53:41.309Z,17.43
2022-10-17T19:56:09.376Z,17.13
2022-10-17T19:58:43.869Z,17.03
2022-10-17T20:01:11.814Z,17.19
2022-10-17T20:03:38.555Z,17.17
2022-10-17T20:06:05.547Z,17.21
2022-10-17T20:08:32.304Z,16.95
2022-10-17T20:11:02.262Z,16.92
2022-10-17T20:13:28.990Z,16.71
2022-10-17T20:15:56.297Z,16.78
2022-10-17T20:18:23.234Z,16.81
2022-10-17T20:20:52.898Z,16.76
2022-10-17T20:23:20.265Z,16.83
2022-10-17T20:25:46.882Z,16.57
2022-10-17T20:28:13.481Z,16.23
2022-10-17T20:30:44.678Z,16.21
2022-10-17T20:33:14.026Z,16.32
2022-10-17T20:35:41.314Z,16.15
2022-10-17T20:38:07.913Z,16.03
2022-10-17T20:40:35.531Z,15.99
2022-10-17T20:43:03.541Z,16.11
2022-10-17T20:45:45.160Z,16.17
2022-10-17T20:48:17.171Z,15.95
2022-10-17T20:50:44.032Z,15.88
2022-10-17T20:53:35.476Z,15.32
2022-10-17T20:56:02.042Z,15.45
2022-10-17T20:58:29.118Z,15.29
2022-10-17T21:00:55.697Z,15.52
2022-10-17T21:03:22.511Z,15.22
2022-10-17T21:05:49.167Z,15.53
2022-10-17T21:08:15.777Z,15.47
2022-10-17T21:10:42.496Z,15.27
2022-10-17T21:13:09.313Z,15.26
2022-10-17T21:15:35.991Z,15.34
2022-10-17T21:18:09.853Z,15.26
2022-10-17T21:23:30.723Z,15.05
2022-10-17T21:26:18.106Z,14.40
2022-10-17T21:28:54.318Z,14.75
2022-10-17T21:31:30.928Z,14.81
2022-10-17T21:37:18.779Z,14.95
2022-10-17T21:42:57.226Z,14.91
2022-10-17T21:45:50.072Z,14.85
2022-10-17T21:48:16.720Z,14.84
2022-10-17T21:50:43.493Z,14.94
2022-10-17T21:53:10.134Z,13.84
2022-10-17T21:55:37.766Z,13.91
2022-10-17T21:58:04.879Z,14.40
2022-10-17T22:00:31.678Z,14.70
2022-10-17T22:02:58.285Z,14.54
2022-10-17T22:05:24.882Z,14.52
2022-10-17T22:07:51.539Z,14.44
2022-10-17T22:10:18.351Z,14.49
2022-10-17T22:12:45.019Z,14.47
2022-10-17T22:15:11.686Z,14.54
2022-10-17T22:17:38.334Z,14.39
2022-10-17T22:20:05.120Z,14.22
2022-10-17T22:22:31.678Z,14.34
2022-10-17T22:24:58.338Z,14.09
2022-10-17T22:27:24.892Z,14.09
2022-10-17T22:29:51.458Z,14.26
2022-10-17T22:32:21.526Z,14.22
2022-10-17T22:34:49.208Z,14.27
2022-10-17T22:37:15.800Z,14.29
2022-10-17T22:39:42.464Z,13.88
2022-10-17T22:42:09.138Z,14.02
2022-10-17T22:44:35.828Z,14.03
2022-10-17T22:47:02.473Z,13.61
2022-10-17T22:49:29.062Z,13.87
2022-10-17T22:51:55.576Z,13.86
2022-10-17T22:54:22.213Z,13.10
2022-10-17T22:56:53.647Z,13.33
2022-10-17T22:59:20.446Z,13.56
2022-10-17T23:01:47.059Z,13.60
2022-10-17T23:04:13.730Z,13.46
2022-10-17T23:06:40.322Z,13.75
2022-10-17T23:09:06.932Z,13.47
2022-10-17T23:11:33.664Z,13.62
2022-10-17T23:14:00.289Z,13.42
2022-10-17T23:16:26.884Z,13.48
2022-10-17T23:18:53.473Z,13.29
2022-10-17T23:21:20.096Z,13.20
2022-10-17T23:23:46.898Z,13.46
2022-10-17T23:26:14.244Z,13.34
2022-10-17T23:28:41.792Z,13.27
2022-10-17T23:31:15.937Z,13.33
2022-10-17T23:33:42.945Z,13.22
2022-10-17T23:36:10.788Z,13.19
2022-10-17T23:38:37.911Z,13.00
2022-10-17T23:41:04.762Z,12.60
2022-10-17T23:43:31.898Z,12.41
2022-10-17T23:45:58.540Z,12.05
2022-10-17T23:48:25.278Z,12.67
2022-10-17T23:50:51.998Z,12.76
2022-10-17T23:53:18.639Z,12.89
2022-10-17T23:55:45.175Z,12.71
2022-10-17T23:58:11.751Z,12.78
